Time;durP1;ratioP1;P1;durP2;ratioP2;P2;SDS_P1;SDS_P2;PMS_P1;PMS_P2;Temp;Humidity;BMP_temperature;BMP_pressure;BME280_temperature;BME280_humidity;BME280_pressure;Samples;Min_cycle;Max_cycle;Signal;HPM_P1;HPM_P2
2022/04/26 03:36:32;;;;;;;6.45;2.97;;;;;;;9.63;68.85;100229.50;18288525;32;20126;-64
2022/04/26 03:46:36;;;;;;;8.70;3.87;;;;;;;9.12;69.29;100238.19;18293327;32;20125;-63
2022/04/26 03:56:39;;;;;;;8.20;3.22;;;;;;;9.04;69.34;100252.91;18334475;32;20105;-64
2022/04/26 04:06:44;;;;;;;7.82;3.05;;;;;;;8.90;69.27;100260.69;18434286;32;20101;-63
2022/04/26 04:16:47;;;;;;;8.77;3.53;;;;;;;9.96;68.73;100259.84;18434179;32;20407;-63
2022/04/26 04:26:52;;;;;;;8.63;3.20;;;;;;;11.29;64.78;100265.38;18434790;32;20239;-63
2022/04/26 04:36:55;;;;;;;9.60;4.00;;;;;;;11.55;64.06;100274.75;18433504;32;20452;-63
2022/04/26 04:47:00;;;;;;;8.48;3.83;;;;;;;12.46;61.73;100293.94;18433331;32;20450;-64
2022/04/26 04:57:04;;;;;;;9.90;4.75;;;;;;;13.20;60.84;100306.94;18432628;32;20378;-64
2022/04/26 05:07:09;;;;;;;8.73;4.07;;;;;;;13.00;60.29;100325.59;18432624;32;20149;-64
2022/04/26 05:17:12;;;;;;;8.10;3.92;;;;;;;13.92;58.91;100318.97;18433075;32;20089;-64
2022/04/26 05:27:17;;;;;;;6.60;3.08;;;;;;;14.95;54.64;100324.03;18431098;32;20115;-64
2022/04/26 05:37:20;;;;;;;9.35;3.60;;;;;;;14.78;54.58;100331.41;18432113;32;20158;-64
2022/04/26 05:47:25;;;;;;;8.13;3.55;;;;;;;14.66;55.27;100330.72;18431861;32;20097;-64
2022/04/26 05:57:28;;;;;;;7.72;3.35;;;;;;;14.96;55.31;100323.12;18431868;32;20093;-65
2022/04/26 06:07:33;;;;;;;7.32;2.97;;;;;;;15.33;54.26;100318.78;18429332;32;20150;-64
2022/04/26 06:17:36;;;;;;;5.82;2.42;;;;;;;18.44;46.45;100308.84;18424151;32;20089;-64
2022/04/26 06:27:41;;;;;;;2.03;1.30;;;;;;;18.98;43.59;100324.47;18424896;32;20093;-64
2022/04/26 06:37:44;;;;;;;2.28;1.33;;;;;;;18.33;42.98;100327.75;18431291;32;20105;-64
2022/04/26 06:47:49;;;;;;;2.15;1.50;;;;;;;18.52;41.09;100324.44;18416750;32;20096;-64
2022/04/26 06:57:53;;;;;;;5.82;2.30;;;;;;;18.90;40.21;100327.44;18415917;32;20146;-65
2022/04/26 07:07:57;;;;;;;3.42;1.50;;;;;;;20.21;39.24;100316.91;18407067;32;20101;-67
2022/04/26 07:18:01;;;;;;;2.40;1.12;;;;;;;25.32;28.36;100315.13;18401202;32;20452;-66
2022/04/26 07:28:06;;;;;;;3.47;1.30;;;;;;;26.24;27.37;100310.88;18436042;32;20339;-65
2022/04/26 07:38:10;;;;;;;3.15;1.50;;;;;;;24.93;29.18;100325.66;18431750;32;20109;-65
2022/04/26 07:48:16;;;;;;;3.50;1.30;;;;;;;24.23;30.80;100335.28;18433747;32;20123;-65
2022/04/26 07:58:20;;;;;;;2.87;1.40;;;;;;;23.11;32.11;100346.13;18433398;32;20462;-64
2022/04/26 08:08:25;;;;;;;2.87;1.42;;;;;;;22.50;32.82;100357.38;18433680;32;20506;-64
2022/04/26 08:18:32;;;;;;;2.85;1.48;;;;;;;21.82;34.70;100376.78;18432225;32;20388;-64
2022/04/26 08:28:37;;;;;;;3.35;1.45;;;;;;;21.10;36.06;100379.25;18432851;32;20373;-64
2022/04/26 08:38:41;;;;;;;2.90;1.20;;;;;;;19.12;38.36;100376.88;18428473;32;20093;-64
2022/04/26 08:59:07;;;;;;;1.83;1.00;;;;;;;19.16;37.87;100386.44;18416100;32;20109;-65
2022/04/26 09:09:13;;;;;;;3.25;0.90;;;;;;;20.09;35.34;100373.94;18410709;32;20106;-65
2022/04/26 09:19:16;;;;;;;1.00;0.80;;;;;;;19.81;35.77;100373.25;18384876;32;20112;-65
2022/04/26 09:29:21;;;;;;;1.90;0.90;;;;;;;19.73;35.83;100370.09;18369499;32;20433;-65
2022/04/26 09:39:25;;;;;;;1.77;0.80;;;;;;;20.68;35.86;100367.84;18373765;32;20439;-65
2022/04/26 09:49:50;;;;;;;1.10;0.60;;;;;;;21.42;33.91;100375.06;18381603;32;20116;-65
2022/04/26 09:59:58;;;;;;;0.70;0.70;;;;;;;22.35;30.49;100363.47;18367704;32;20431;-65
2022/04/26 10:10:03;;;;;;;1.33;0.80;;;;;;;22.39;26.87;100346.41;18368063;32;20097;-65
2022/04/26 10:20:08;;;;;;;0.60;0.60;;;;;;;22.14;29.61;100343.22;18368020;32;20101;-66
2022/04/26 10:30:12;;;;;;;0.90;0.60;;;;;;;21.79;29.15;100342.37;18367105;32;20385;-65
2022/04/26 10:40:16;;;;;;;0.75;0.73;;;;;;;21.79;29.23;100337.91;18388227;32;20089;-66
2022/04/26 10:50:31;;;;;;;1.02;0.68;;;;;;;22.08;28.30;100326.72;18375814;32;20413;-65
2022/04/26 11:00:37;;;;;;;1.37;0.73;;;;;;;20.86;29.85;100335.22;18371642;32;20108;-65
2022/04/26 11:21:02;;;;;;;0.93;0.70;;;;;;;22.57;28.99;100320.66;18351561;32;20366;-65
2022/04/26 11:31:07;;;;;;;1.37;1.00;;;;;;;23.00;27.79;100320.97;18413027;32;20339;-65
2022/04/26 11:41:10;;;;;;;1.20;0.80;;;;;;;23.50;27.71;100309.34;18427425;32;20476;-65
2022/04/26 11:51:15;;;;;;;1.35;0.90;;;;;;;24.19;26.67;100291.09;18426860;32;20108;-65
2022/04/26 12:01:20;;;;;;;1.30;0.93;;;;;;;24.07;25.72;100281.16;18413270;32;20107;-65
2022/04/26 12:11:27;;;;;;;2.55;0.90;;;;;;;24.02;28.76;100288.56;18420141;32;20377;-65
2022/04/26 12:21:44;;;;;;;2.83;1.20;;;;;;;24.84;26.24;100285.34;18434634;32;20138;-65
2022/04/26 12:31:50;;;;;;;1.52;1.00;;;;;;;24.03;27.33;100285.78;18420026;32;20183;-65
2022/04/26 12:41:56;;;;;;;1.73;0.93;;;;;;;23.96;28.14;100271.97;18419425;32;20565;-65
2022/04/26 12:52:00;;;;;;;1.58;1.10;;;;;;;24.09;29.47;100258.78;18433756;32;20494;-66
2022/04/26 13:02:04;;;;;;;1.33;1.00;;;;;;;24.12;27.17;100265.75;18433935;32;20166;-65
2022/04/26 13:12:09;;;;;;;2.42;1.00;;;;;;;23.40;28.90;100253.94;18432598;32;20089;-66
2022/04/26 13:22:13;;;;;;;1.45;0.90;;;;;;;24.27;28.20;100247.94;18418065;32;20101;-65
2022/04/26 13:32:18;;;;;;;1.95;1.10;;;;;;;22.90;29.95;100252.38;18431798;32;20089;-65
2022/04/26 13:42:23;;;;;;;3.08;1.30;;;;;;;23.46;28.74;100251.88;18419345;32;20440;-65
2022/04/26 13:52:28;;;;;;;1.75;1.10;;;;;;;22.94;30.07;100259.22;18430338;32;20089;-65
2022/04/26 14:02:31;;;;;;;3.12;1.30;;;;;;;22.21;31.34;100258.72;18413482;32;20162;-65
2022/04/26 14:12:36;;;;;;;2.53;1.30;;;;;;;21.90;31.09;100250.53;18414191;32;20373;-65
2022/04/26 14:22:41;;;;;;;2.33;1.15;;;;;;;22.26;31.92;100253.97;18417703;32;20438;-65
2022/04/26 14:32:45;;;;;;;4.72;1.12;;;;;;;22.11;32.21;100244.19;18429871;32;20090;-65
2022/04/26 14:42:49;;;;;;;2.80;1.27;;;;;;;22.15;32.51;100243.94;18416285;32;20085;-65
2022/04/26 14:52:54;;;;;;;3.33;1.17;;;;;;;22.20;31.94;100249.00;18417464;32;20381;-65
2022/04/26 15:02:57;;;;;;;3.40;1.20;;;;;;;22.26;31.23;100243.34;18430157;32;20128;-65
2022/04/26 15:23:22;;;;;;;1.87;1.08;;;;;;;22.46;30.57;100236.09;18414502;32;20085;-65
2022/04/26 15:33:27;;;;;;;3.10;1.20;;;;;;;23.19;30.24;100239.19;18427559;32;20429;-65
2022/04/26 15:43:31;;;;;;;1.70;1.10;;;;;;;22.71;30.13;100234.78;18433943;32;20378;-66
2022/04/26 15:53:35;;;;;;;1.75;1.17;;;;;;;22.54;31.43;100230.41;18433539;32;20432;-65
2022/04/26 16:03:41;;;;;;;2.20;1.17;;;;;;;22.12;32.50;100237.94;18420662;32;20095;-65
2022/04/26 16:24:07;;;;;;;3.28;1.30;;;;;;;21.07;34.12;100236.97;18420349;32;20097;-65
2022/04/26 16:34:11;;;;;;;1.92;1.33;;;;;;;21.30;34.63;100235.84;18421271;32;20453;-65
2022/04/26 16:44:15;;;;;;;3.53;1.60;;;;;;;21.00;34.88;100238.22;18420039;32;20112;-65
2022/04/26 16:54:20;;;;;;;4.80;1.70;;;;;;;20.72;36.30;100247.44;18431857;32;20105;-65
2022/04/26 17:04:24;;;;;;;5.47;1.87;;;;;;;20.69;36.43;100248.44;18430535;32;20093;-65
2022/04/26 17:14:31;;;;;;;5.28;2.00;;;;;;;20.57;37.08;100260.47;18417478;32;20436;-65
2022/04/26 17:34:56;;;;;;;3.60;1.42;;;;;;;20.02;38.29;100262.06;18424075;32;20344;-65
2022/04/26 17:44:59;;;;;;;2.50;1.42;;;;;;;19.74;38.84;100265.88;18415397;32;20116;-64
2022/04/26 18:05:25;;;;;;;6.10;2.37;;;;;;;19.27;42.00;100283.69;18431757;32;20120;-65
2022/04/26 18:15:30;;;;;;;4.82;2.17;;;;;;;18.94;43.72;100296.44;18393962;32;20104;-65
2022/04/26 18:35:55;;;;;;;6.20;2.72;;;;;;;18.51;44.89;100317.44;18417318;32;20092;-64
2022/04/26 18:46:00;;;;;;;6.15;2.80;;;;;;;18.33;45.35;100324.22;18415971;32;20115;-65
2022/04/26 18:56:05;;;;;;;6.12;2.33;;;;;;;17.88;47.66;100334.56;18429020;32;20120;-65
2022/04/26 19:06:09;;;;;;;4.12;2.33;;;;;;;17.66;48.42;100337.03;18415203;32;20458;-65
2022/04/26 19:16:14;;;;;;;4.45;2.20;;;;;;;17.43;49.18;100342.13;18412619;32;20112;-65
2022/04/26 19:26:18;;;;;;;6.32;2.42;;;;;;;17.15;50.93;100342.13;18430658;32;20467;-65
2022/04/26 19:36:23;;;;;;;7.93;3.17;;;;;;;16.92;51.54;100349.78;18417092;32;20124;-65
2022/04/26 19:46:26;;;;;;;6.12;2.67;;;;;;;16.93;50.81;100350.66;18436414;32;20123;-65
2022/04/26 19:56:31;;;;;;;7.85;3.08;;;;;;;16.84;51.09;100345.66;18422319;32;20160;-65
2022/04/26 20:06:34;;;;;;;6.43;2.40;;;;;;;16.43;53.71;100359.09;18435749;32;20120;-65
2022/04/26 20:16:39;;;;;;;5.82;2.50;;;;;;;16.48;54.96;100360.69;18435474;32;20108;-65
2022/04/26 20:37:04;;;;;;;8.75;3.17;;;;;;;16.08;54.61;100364.38;18434507;32;20101;-65
2022/04/26 20:47:08;;;;;;;7.90;3.40;;;;;;;16.22;54.21;100372.81;18434282;32;20109;-65
2022/04/26 20:57:13;;;;;;;7.03;3.22;;;;;;;15.86;56.28;100385.97;18425022;32;20136;-65
2022/04/26 21:07:17;;;;;;;6.97;3.12;;;;;;;15.48;57.83;100393.84;18417365;32;20883;-65
2022/04/26 21:17:22;;;;;;;7.62;3.55;;;;;;;15.72;55.88;100393.31;18419600;32;20120;-65
2022/04/26 21:27:25;;;;;;;7.80;3.85;;;;;;;15.41;57.04;100408.03;18433974;32;20130;-65
2022/04/26 21:37:29;;;;;;;11.38;4.62;;;;;;;15.15;59.20;100405.97;18433024;32;20096;-65
2022/04/26 21:47:33;;;;;;;6.18;3.20;;;;;;;15.24;58.44;100397.88;18433297;32;20119;-65
2022/04/26 21:57:37;;;;;;;6.03;2.92;;;;;;;15.33;58.99;100397.69;18418306;32;20094;-65
2022/04/26 22:07:41;;;;;;;7.70;3.17;;;;;;;15.20;59.66;100399.72;18432777;32;20102;-65
2022/04/26 22:17:45;;;;;;;7.47;3.30;;;;;;;15.02;61.26;100392.22;18431855;32;20485;-65
2022/04/26 22:27:48;;;;;;;8.93;3.92;;;;;;;15.10;60.74;100406.94;18431545;32;20093;-65
2022/04/26 22:37:53;;;;;;;9.73;3.95;;;;;;;15.27;61.09;100416.25;18431281;32;20104;-65
2022/04/26 22:47:56;;;;;;;7.82;3.72;;;;;;;15.60;59.80;100429.53;18429768;32;20115;-65
2022/04/26 22:58:02;;;;;;;10.18;3.97;;;;;;;15.13;62.22;100424.44;18430184;32;20096;-65
2022/04/26 23:08:05;;;;;;;8.98;3.87;;;;;;;15.42;60.84;100422.06;18415794;32;20105;-65
2022/04/26 23:18:10;;;;;;;8.85;3.97;;;;;;;15.10;62.75;100422.72;18429286;32;20433;-65
2022/04/26 23:28:13;;;;;;;7.43;3.30;;;;;;;15.08;62.65;100429.78;18428725;32;20457;-65
2022/04/26 23:38:17;;;;;;;7.97;3.58;;;;;;;15.02;63.02;100435.16;18428222;32;20115;-65
2022/04/26 23:48:21;;;;;;;7.68;3.15;;;;;;;15.08;63.39;100437.66;18413452;32;20475;-65
2022/04/26 23:58:25;;;;;;;7.78;3.28;;;;;;;15.12;62.76;100447.22;18425282;32;73441;-65
